createdAt,value
2023-04-11T00:00:40.412Z,0.80
2023-04-11T00:03:08.850Z,0.53
2023-04-11T00:05:36.994Z,0.43
2023-04-11T00:08:05.138Z,0.90
2023-04-11T00:10:33.635Z,0.60
2023-04-11T00:13:01.567Z,1.13
2023-04-11T00:15:29.452Z,0.57
2023-04-11T00:17:58.888Z,0.53
2023-04-11T00:20:26.804Z,0.80
2023-04-11T00:22:54.943Z,0.67
2023-04-11T00:25:22.842Z,0.80
2023-04-11T00:27:50.885Z,0.90
2023-04-11T00:30:18.797Z,1.17
2023-04-11T00:32:47.549Z,0.80
2023-04-11T00:35:17.011Z,0.87
2023-04-11T00:37:45.529Z,0.73
2023-04-11T00:40:17.679Z,1.00
2023-04-11T00:42:45.671Z,1.00
2023-04-11T00:45:14.030Z,0.87
2023-04-11T00:47:42.380Z,0.50
2023-04-11T00:50:14.077Z,1.37
2023-04-11T00:52:46.239Z,1.07
2023-04-11T00:55:15.146Z,1.07
2023-04-11T00:57:43.752Z,1.20
2023-04-11T01:00:13.069Z,1.07
2023-04-11T01:02:45.191Z,1.17
2023-04-11T01:05:14.732Z,1.30
2023-04-11T01:07:46.717Z,1.17
2023-04-11T01:10:16.070Z,1.80
2023-04-11T01:12:44.760Z,1.00
2023-04-11T01:15:12.979Z,1.60
2023-04-11T01:17:41.835Z,1.40
2023-04-11T01:20:10.548Z,1.60
2023-04-11T01:22:40.519Z,1.53
2023-04-11T01:25:10.657Z,1.70
2023-04-11T01:27:38.636Z,1.50
2023-04-11T01:30:08.123Z,1.70
2023-04-11T01:32:36.178Z,1.50
2023-04-11T01:35:06.040Z,1.37
2023-04-11T01:37:34.034Z,1.53
2023-04-11T01:40:02.468Z,1.80
2023-04-11T01:42:33.612Z,1.80
2023-04-11T01:45:02.605Z,1.90
2023-04-11T01:47:30.564Z,1.90
2023-04-11T01:49:58.525Z,2.50
2023-04-11T01:52:26.499Z,1.60
2023-04-11T01:54:54.458Z,1.60
2023-04-11T01:57:22.519Z,1.97
2023-04-11T01:59:51.946Z,1.57
2023-04-11T02:02:20.001Z,1.80
2023-04-11T02:04:47.917Z,1.90
2023-04-11T02:07:15.767Z,1.67
2023-04-11T02:09:43.648Z,2.00
2023-04-11T02:12:11.930Z,2.03
2023-04-11T02:14:43.956Z,1.97
2023-04-11T02:17:14.147Z,1.80
2023-04-11T02:19:45.215Z,2.23
2023-04-11T02:22:13.509Z,2.03
2023-04-11T02:24:41.571Z,2.00
2023-04-11T02:27:10.454Z,2.37
2023-04-11T02:29:38.335Z,2.17
2023-04-11T02:32:06.581Z,2.70
2023-04-11T02:34:36.011Z,2.47
2023-04-11T02:37:04.224Z,2.20
2023-04-11T02:39:32.072Z,2.27
2023-04-11T02:42:00.019Z,1.70
2023-04-11T02:44:29.379Z,2.73
2023-04-11T02:46:57.383Z,2.60
2023-04-11T02:49:25.284Z,2.77
2023-04-11T02:51:54.580Z,2.10
2023-04-11T02:54:22.542Z,2.50
2023-04-11T02:56:50.938Z,1.97
2023-04-11T02:59:18.798Z,2.50
2023-04-11T03:01:46.794Z,2.17
2023-04-11T03:04:14.734Z,2.30
2023-04-11T03:06:42.590Z,2.57
2023-04-11T03:09:11.882Z,2.10
2023-04-11T03:11:39.744Z,2.33
2023-04-11T03:14:07.605Z,2.33
2023-04-11T03:16:35.741Z,2.73
2023-04-11T03:19:03.628Z,2.70
2023-04-11T03:21:32.121Z,2.07
2023-04-11T03:24:01.167Z,3.40
2023-04-11T03:26:30.973Z,2.37
2023-04-11T03:29:00.165Z,2.63
2023-04-11T03:31:28.854Z,2.43
2023-04-11T03:33:56.985Z,2.30
2023-04-11T03:36:26.581Z,2.63
2023-04-11T03:38:54.837Z,2.47
2023-04-11T03:41:23.068Z,1.83
2023-04-11T03:43:52.321Z,2.63
2023-04-11T03:46:20.314Z,3.20
2023-04-11T03:48:48.359Z,2.23
2023-04-11T03:51:16.365Z,2.03
2023-04-11T03:53:44.298Z,2.43
2023-04-11T03:56:12.217Z,2.83
2023-04-11T03:58:40.227Z,2.70
2023-04-11T04:01:09.593Z,2.40
2023-04-11T04:03:37.963Z,2.37
2023-04-11T04:06:06.765Z,2.33
2023-04-11T04:08:35.418Z,2.67
2023-04-11T04:11:03.280Z,2.30
2023-04-11T04:13:31.248Z,2.37
2023-04-11T04:16:00.233Z,2.60
2023-04-11T04:18:31.243Z,2.57
2023-04-11T04:20:59.152Z,2.27
2023-04-11T04:23:27.072Z,2.23
2023-04-11T04:25:57.927Z,2.07
2023-04-11T04:28:26.524Z,2.43
2023-04-11T04:30:58.180Z,2.57
2023-04-11T04:33:27.646Z,2.00
2023-04-11T04:35:59.846Z,2.00
2023-04-11T04:38:28.990Z,2.10
2023-04-11T04:40:56.950Z,2.43
2023-04-11T04:43:27.080Z,2.30
2023-04-11T04:45:55.004Z,2.37
2023-04-11T04:48:25.421Z,2.20
2023-04-11T04:50:53.325Z,2.03
2023-04-11T04:53:22.568Z,2.07
2023-04-11T04:55:50.573Z,2.30
2023-04-11T04:58:18.389Z,2.20
2023-04-11T05:00:46.393Z,2.30
2023-04-11T05:03:17.003Z,2.47
2023-04-11T05:05:45.026Z,2.10
2023-04-11T05:08:12.920Z,2.23
2023-04-11T05:10:42.204Z,2.20
2023-04-11T05:13:10.047Z,1.97
2023-04-11T05:15:37.892Z,2.27
2023-04-11T05:18:05.879Z,2.30
2023-04-11T05:20:34.037Z,2.47
2023-04-11T05:23:01.985Z,2.20
2023-04-11T05:25:29.852Z,2.30
2023-04-11T05:27:59.121Z,2.33
2023-04-11T05:30:27.236Z,2.07
2023-04-11T05:32:56.055Z,2.30
2023-04-11T05:35:24.026Z,2.00
2023-04-11T05:37:51.996Z,2.80
2023-04-11T05:40:20.224Z,2.40
2023-04-11T05:42:48.336Z,2.57
2023-04-11T05:45:19.491Z,2.30
2023-04-11T05:47:47.516Z,2.47
2023-04-11T05:50:16.100Z,2.60
2023-04-11T05:52:43.926Z,2.33
2023-04-11T05:55:12.637Z,2.67
2023-04-11T05:57:40.591Z,2.73
2023-04-11T06:00:13.031Z,2.20
2023-04-11T06:02:43.683Z,2.40
2023-04-11T06:05:12.391Z,2.20
2023-04-11T06:07:41.373Z,2.57
2023-04-11T06:10:10.947Z,2.53
2023-04-11T06:12:38.864Z,2.33
2023-04-11T06:15:09.187Z,2.70
2023-04-11T06:17:37.135Z,2.30
2023-04-11T06:20:08.523Z,2.50
2023-04-11T06:22:36.424Z,2.57
2023-04-11T06:25:04.612Z,2.10
2023-04-11T06:27:32.553Z,2.60
2023-04-11T06:30:00.582Z,2.60
2023-04-11T06:32:28.898Z,2.30
2023-04-11T06:34:56.864Z,2.43
2023-04-11T06:37:26.157Z,2.67
2023-04-11T06:39:54.049Z,2.07
2023-04-11T06:42:21.980Z,2.30
2023-04-11T06:44:50.357Z,2.60
2023-04-11T06:47:18.295Z,2.00
2023-04-11T06:49:46.210Z,2.47
2023-04-11T06:52:14.122Z,2.33
2023-04-11T06:54:43.450Z,2.10
2023-04-11T06:57:11.501Z,2.20
2023-04-11T06:59:39.338Z,2.03
2023-04-11T07:02:07.909Z,1.63
2023-04-11T07:04:36.029Z,1.93
2023-04-11T07:07:04.485Z,2.00
2023-04-11T07:09:32.459Z,2.13
2023-04-11T07:12:01.721Z,2.30
2023-04-11T07:14:29.690Z,2.33
2023-04-11T07:16:57.553Z,2.20
2023-04-11T07:19:25.440Z,2.10
2023-04-11T07:21:53.358Z,2.43
2023-04-11T07:24:21.295Z,2.07
2023-04-11T07:26:51.094Z,2.17
2023-04-11T07:29:20.551Z,1.90
2023-04-11T07:31:49.540Z,2.23
2023-04-11T07:34:17.693Z,1.90
2023-04-11T07:36:45.584Z,2.50
2023-04-11T07:39:14.105Z,1.67
2023-04-11T07:41:42.139Z,1.80
2023-04-11T07:44:10.476Z,2.43
2023-04-11T07:46:39.679Z,2.40
2023-04-11T07:49:07.584Z,2.20
2023-04-11T07:51:35.656Z,2.07
2023-04-11T07:54:03.841Z,2.47
2023-04-11T07:56:31.715Z,2.17
2023-04-11T07:59:01.280Z,2.00
2023-04-11T08:01:29.454Z,2.20
2023-04-11T08:03:59.047Z,2.13
2023-04-11T08:06:29.059Z,2.03
2023-04-11T08:08:58.629Z,1.80
2023-04-11T08:11:26.757Z,1.63
2023-04-11T08:13:54.780Z,1.87
2023-04-11T08:16:22.899Z,1.93
2023-04-11T08:18:50.888Z,2.17
2023-04-11T08:21:20.075Z,1.40
2023-04-11T08:23:47.950Z,2.03
2023-04-11T08:26:17.017Z,1.83
2023-04-11T08:28:44.889Z,1.47
2023-04-11T08:31:13.413Z,1.80
2023-04-11T08:33:41.855Z,2.07
2023-04-11T08:36:11.071Z,1.60
2023-04-11T08:38:41.676Z,1.30
2023-04-11T08:41:09.700Z,1.77
2023-04-11T08:43:38.910Z,1.70
2023-04-11T08:46:08.794Z,1.80
2023-04-11T08:48:37.100Z,1.73
2023-04-11T08:51:05.352Z,1.57
2023-04-11T08:53:37.423Z,1.57
2023-04-11T08:56:07.105Z,1.57
2023-04-11T08:58:35.007Z,1.43
2023-04-11T09:01:25.958Z,1.53
2023-04-11T09:03:54.016Z,1.50
2023-04-11T09:06:22.061Z,1.30
2023-04-11T09:08:50.396Z,1.50
2023-04-11T09:11:20.019Z,1.70
2023-04-11T09:13:48.530Z,1.53
2023-04-11T09:16:16.598Z,1.50
2023-04-11T09:18:46.625Z,1.60
2023-04-11T09:21:16.885Z,1.90
2023-04-11T09:23:44.987Z,1.50
2023-04-11T09:26:13.949Z,1.53
2023-04-11T09:28:44.783Z,1.53
2023-04-11T09:31:14.006Z,1.43
2023-04-11T09:33:54.609Z,1.43
2023-04-11T09:36:24.005Z,1.20
2023-04-11T09:38:52.420Z,1.20
2023-04-11T09:41:32.003Z,1.70
2023-04-11T09:44:02.393Z,1.30
2023-04-11T09:46:30.662Z,1.27
2023-04-11T09:49:01.444Z,1.50
2023-04-11T09:51:36.489Z,1.80
2023-04-11T09:54:06.493Z,1.33
2023-04-11T09:56:35.372Z,1.20
2023-04-11T09:59:05.868Z,1.43
2023-04-11T10:01:33.920Z,1.33
2023-04-11T10:04:02.058Z,1.37
2023-04-11T10:06:33.548Z,1.30
2023-04-11T10:09:08.264Z,1.40
2023-04-11T10:11:36.782Z,1.40
2023-04-11T10:14:06.058Z,1.67
2023-04-11T10:16:34.459Z,1.57
2023-04-11T10:19:25.177Z,1.43
2023-04-11T10:21:53.068Z,1.50
2023-04-11T10:24:22.173Z,1.73
2023-04-11T10:26:51.976Z,1.77
2023-04-11T10:29:53.216Z,1.53
2023-04-11T10:32:25.912Z,1.80
2023-04-11T10:35:23.844Z,1.57
2023-04-11T10:37:51.839Z,1.97
2023-04-11T10:40:20.873Z,1.40
2023-04-11T10:42:49.386Z,1.57
2023-04-11T10:45:24.386Z,1.43
2023-04-11T10:48:07.729Z,1.80
2023-04-11T10:50:40.021Z,1.63
2023-04-11T10:53:09.650Z,1.40
2023-04-11T10:55:49.087Z,1.30
2023-04-11T10:58:19.724Z,1.87
2023-04-11T11:01:31.287Z,1.37
2023-04-11T11:04:06.291Z,1.40
2023-04-11T11:06:46.047Z,1.33
2023-04-11T11:09:24.432Z,1.73
2023-04-11T11:12:08.835Z,1.37
2023-04-11T11:14:37.040Z,1.60
2023-04-11T11:17:06.545Z,1.60
2023-04-11T11:19:35.534Z,1.40
2023-04-11T11:22:04.832Z,1.63
2023-04-11T11:24:32.860Z,1.20
2023-04-11T11:27:00.762Z,1.37
2023-04-11T11:29:33.657Z,1.60
2023-04-11T11:32:03.392Z,1.37
2023-04-11T11:34:34.423Z,1.10
2023-04-11T11:37:04.488Z,1.50
2023-04-11T11:39:33.936Z,1.30
2023-04-11T11:42:02.207Z,1.30
2023-04-11T11:44:31.480Z,1.23
2023-04-11T11:47:03.088Z,1.10
2023-04-11T11:49:46.626Z,1.33
2023-04-11T11:52:31.609Z,1.20
2023-04-11T11:54:59.670Z,1.73
2023-04-11T11:57:27.545Z,1.20
2023-04-11T11:59:56.200Z,1.00
2023-04-11T12:02:26.200Z,1.10
2023-04-11T12:05:00.080Z,1.23
2023-04-11T12:07:32.408Z,1.73
2023-04-11T12:10:01.360Z,1.30
2023-04-11T12:12:37.154Z,1.33
2023-04-11T12:15:11.125Z,1.30
2023-04-11T12:17:39.653Z,1.20
2023-04-11T12:20:10.808Z,1.17
2023-04-11T12:22:39.027Z,1.47
2023-04-11T12:25:08.354Z,1.10
2023-04-11T12:27:37.055Z,1.03
2023-04-11T12:30:05.860Z,0.80
2023-04-11T12:32:34.301Z,1.10
2023-04-11T12:35:02.721Z,1.47
2023-04-11T12:37:32.030Z,1.23
2023-04-11T12:40:00.316Z,1.23
2023-04-11T12:42:28.291Z,1.10
2023-04-11T12:44:56.231Z,1.50
2023-04-11T12:47:24.157Z,1.17
2023-04-11T12:49:52.235Z,1.30
2023-04-11T12:52:20.277Z,1.30
2023-04-11T12:54:49.580Z,1.20
2023-04-11T12:57:17.740Z,1.10
2023-04-11T12:59:45.710Z,1.40
2023-04-11T13:02:13.723Z,1.23
2023-04-11T13:04:41.907Z,1.40
2023-04-11T13:07:10.066Z,1.33
2023-04-11T13:09:37.997Z,1.00
2023-04-11T13:12:07.609Z,1.77
2023-04-11T13:14:36.905Z,1.40
2023-04-11T13:17:04.960Z,1.00
2023-04-11T13:19:32.888Z,1.40
2023-04-11T13:22:00.840Z,1.53
2023-04-11T13:24:28.726Z,1.07
2023-04-11T13:26:57.040Z,1.60
2023-04-11T13:29:26.385Z,1.50
2023-04-11T13:31:54.340Z,1.90
2023-04-11T13:34:22.287Z,1.10
2023-04-11T13:36:51.251Z,1.20
2023-04-11T13:39:19.580Z,1.10
2023-04-11T13:41:47.428Z,1.37
2023-04-11T13:44:15.621Z,1.00
2023-04-11T13:46:44.867Z,1.10
2023-04-11T13:49:12.714Z,1.37
2023-04-11T13:51:41.252Z,1.20
2023-04-11T13:54:09.080Z,1.17
2023-04-11T13:56:38.034Z,1.10
2023-04-11T13:59:06.029Z,1.30
2023-04-11T14:01:34.144Z,1.13
2023-04-11T14:04:03.541Z,1.23
2023-04-11T14:06:31.570Z,1.33
2023-04-11T14:08:59.480Z,1.10
2023-04-11T14:11:27.505Z,1.00
2023-04-11T14:13:55.730Z,1.30
2023-04-11T14:16:23.932Z,0.97
2023-04-11T14:18:51.834Z,1.60
2023-04-11T14:21:21.458Z,0.93
2023-04-11T14:23:49.585Z,1.10
2023-04-11T14:26:17.694Z,1.10
2023-04-11T14:28:45.674Z,1.10
2023-04-11T14:31:13.675Z,1.13
2023-04-11T14:33:41.732Z,1.23
2023-04-11T14:36:10.506Z,1.40
2023-04-11T14:38:39.711Z,0.97
2023-04-11T14:41:07.843Z,1.60
2023-04-11T14:43:35.868Z,1.03
2023-04-11T14:46:03.968Z,1.03
2023-04-11T14:48:31.835Z,1.73
2023-04-11T14:51:03.167Z,1.37
2023-04-11T14:53:31.171Z,1.37
2023-04-11T14:56:00.405Z,1.70
2023-04-11T14:58:28.312Z,2.07
2023-04-11T15:00:56.721Z,1.90
2023-04-11T15:03:25.314Z,1.47
2023-04-11T15:05:53.590Z,1.60
2023-04-11T15:08:21.497Z,1.60
2023-04-11T15:10:54.006Z,1.00
2023-04-11T15:13:24.004Z,1.43
2023-04-11T15:15:53.346Z,1.77
2023-04-11T15:18:25.293Z,1.77
2023-04-11T15:20:53.672Z,1.30
2023-04-11T15:23:22.096Z,1.60
2023-04-11T15:25:54.547Z,1.37
2023-04-11T15:28:24.859Z,1.13
2023-04-11T15:30:54.642Z,1.83
2023-04-11T15:33:24.246Z,1.20
2023-04-11T15:35:54.099Z,1.60
2023-04-11T15:38:22.720Z,1.20
2023-04-11T15:40:51.252Z,1.43
2023-04-11T15:43:19.297Z,1.37
2023-04-11T15:45:48.891Z,1.40
2023-04-11T15:48:16.934Z,1.37
2023-04-11T15:50:45.667Z,1.50
2023-04-11T15:53:13.764Z,1.67
2023-04-11T15:55:42.425Z,1.30
2023-04-11T15:58:10.662Z,1.43
2023-04-11T16:00:39.643Z,1.40
2023-04-11T16:03:10.727Z,1.50
2023-04-11T16:05:41.261Z,1.50
2023-04-11T16:08:09.366Z,1.37
2023-04-11T16:10:37.244Z,1.30
2023-04-11T16:13:05.321Z,1.30
2023-04-11T16:15:33.472Z,1.70
2023-04-11T16:18:01.385Z,1.20
2023-04-11T16:20:32.848Z,1.33
2023-04-11T16:23:00.846Z,1.40
2023-04-11T16:25:28.916Z,1.67
2023-04-11T16:27:56.815Z,1.77
2023-04-11T16:30:25.261Z,1.83
2023-04-11T16:32:53.218Z,1.67
2023-04-11T16:35:21.348Z,1.30
2023-04-11T16:37:50.745Z,1.30
2023-04-11T16:40:18.896Z,1.90
2023-04-11T16:42:46.867Z,1.33
2023-04-11T16:45:14.847Z,1.50
2023-04-11T16:47:42.815Z,1.30
2023-04-11T16:50:11.270Z,1.37
2023-04-11T16:52:39.201Z,1.30
2023-04-11T16:55:09.425Z,1.30
2023-04-11T16:57:37.502Z,1.50
2023-04-11T17:00:10.736Z,1.60
2023-04-11T17:02:38.781Z,1.60
2023-04-11T17:05:08.177Z,1.10
2023-04-11T17:07:36.092Z,1.60
2023-04-11T17:10:04.136Z,1.40
2023-04-11T17:12:33.348Z,1.90
2023-04-11T17:15:01.615Z,1.73
2023-04-11T17:17:29.636Z,1.40
2023-04-11T17:19:57.672Z,1.57
2023-04-11T17:22:25.801Z,1.30
2023-04-11T17:24:54.677Z,1.37
2023-04-11T17:27:23.262Z,1.40
2023-04-11T17:29:52.626Z,1.50
2023-04-11T17:32:21.229Z,1.47
2023-04-11T17:34:49.237Z,1.60
2023-04-11T17:37:17.662Z,1.77
2023-04-11T17:39:46.448Z,1.93
2023-04-11T17:42:14.740Z,1.67
2023-04-11T17:44:42.685Z,1.83
2023-04-11T17:47:11.897Z,1.60
2023-04-11T17:49:39.804Z,1.47
2023-04-11T17:52:07.647Z,1.57
2023-04-11T17:54:36.065Z,1.57
2023-04-11T17:57:04.158Z,1.43
2023-04-11T17:59:32.662Z,1.53
2023-04-11T18:02:00.806Z,1.40
2023-04-11T18:04:30.365Z,1.97
2023-04-11T18:06:58.619Z,1.20
2023-04-11T18:09:31.765Z,1.57
2023-04-11T18:12:00.429Z,1.87
2023-04-11T18:14:28.619Z,1.80
2023-04-11T18:16:56.891Z,1.60
2023-04-11T18:19:24.858Z,1.80
2023-04-11T18:21:54.142Z,2.03
2023-04-11T18:24:21.967Z,2.30
2023-04-11T18:26:49.884Z,1.57
2023-04-11T18:29:17.858Z,2.07
2023-04-11T18:31:46.000Z,1.90
2023-04-11T18:34:14.190Z,1.87
2023-04-11T18:36:42.458Z,1.87
2023-04-11T18:39:11.907Z,2.00
2023-04-11T18:41:39.861Z,1.77
2023-04-11T18:44:09.717Z,2.10
2023-04-11T18:46:38.073Z,1.73
2023-04-11T18:49:07.391Z,1.73
2023-04-11T18:51:35.967Z,1.73
2023-04-11T18:54:04.020Z,1.70
2023-04-11T18:56:34.180Z,1.90
2023-04-11T18:59:06.818Z,1.83
2023-04-11T19:01:37.194Z,1.50
2023-04-11T19:04:05.914Z,1.90
2023-04-11T19:06:34.162Z,1.67
2023-04-11T19:09:02.243Z,2.17
2023-04-11T19:11:31.166Z,2.00
2023-04-11T19:14:01.417Z,1.60
2023-04-11T19:16:30.346Z,1.43
2023-04-11T19:18:59.107Z,1.90
2023-04-11T19:21:27.261Z,1.50
2023-04-11T19:23:56.536Z,1.53
2023-04-11T19:26:27.370Z,1.47
2023-04-11T19:28:55.429Z,1.80
2023-04-11T19:31:26.445Z,1.70
2023-04-11T19:33:54.546Z,1.67
2023-04-11T19:36:23.433Z,1.50
2023-04-11T19:38:51.406Z,1.50
2023-04-11T19:41:20.339Z,1.70
2023-04-11T19:43:48.544Z,1.60
2023-04-11T19:46:17.608Z,1.60
2023-04-11T19:48:47.376Z,1.93
2023-04-11T19:51:16.659Z,1.40
2023-04-11T19:53:44.673Z,1.67
2023-04-11T19:56:13.313Z,1.73
2023-04-11T19:58:41.636Z,2.13
2023-04-11T20:01:09.863Z,1.50
2023-04-11T20:03:38.045Z,1.37
2023-04-11T20:06:09.404Z,1.70
2023-04-11T20:08:38.012Z,1.50
2023-04-11T20:11:06.417Z,1.70
2023-04-11T20:13:35.977Z,1.40
2023-04-11T20:16:07.982Z,1.57
2023-04-11T20:18:36.006Z,1.50
2023-04-11T20:21:06.192Z,1.90
2023-04-11T20:23:35.715Z,2.00
2023-04-11T20:26:03.561Z,1.90
2023-04-11T20:28:31.574Z,2.00
2023-04-11T20:30:59.843Z,1.60
2023-04-11T20:33:28.868Z,1.67
2023-04-11T20:35:56.971Z,2.00
2023-04-11T20:38:26.359Z,1.90
2023-04-11T20:40:55.683Z,1.83
2023-04-11T20:43:25.941Z,1.70
2023-04-11T20:45:54.462Z,1.70
2023-04-11T20:48:22.337Z,1.63
2023-04-11T20:50:53.640Z,1.53
2023-04-11T20:53:21.635Z,1.80
2023-04-11T20:55:49.841Z,1.67
2023-04-11T20:58:20.930Z,1.50
2023-04-11T21:00:48.910Z,1.43
2023-04-11T21:03:16.987Z,1.30
2023-04-11T21:05:46.637Z,1.30
2023-04-11T21:08:14.741Z,1.77
2023-04-11T21:10:42.689Z,1.57
2023-04-11T21:13:10.660Z,1.60
2023-04-11T21:15:40.057Z,1.63
2023-04-11T21:18:08.305Z,1.43
2023-04-11T21:20:36.257Z,1.43
2023-04-11T21:23:04.194Z,1.50
2023-04-11T21:25:32.297Z,1.70
2023-04-11T21:28:00.176Z,1.53
2023-04-11T21:30:28.030Z,1.40
2023-04-11T21:32:57.391Z,1.50
2023-04-11T21:35:25.415Z,1.53
2023-04-11T21:37:53.263Z,1.60
2023-04-11T21:40:21.239Z,1.47
2023-04-11T21:42:49.208Z,1.50
2023-04-11T21:45:17.213Z,1.70
2023-04-11T21:47:46.461Z,1.17
2023-04-11T21:50:15.798Z,1.37
2023-04-11T21:52:44.470Z,1.50
2023-04-11T21:55:12.694Z,1.33
2023-04-11T21:57:40.574Z,1.30
2023-04-11T22:00:11.046Z,1.30
2023-04-11T22:02:39.730Z,1.40
2023-04-11T22:05:09.720Z,1.30
2023-04-11T22:07:39.502Z,1.30
2023-04-11T22:10:11.649Z,1.53
2023-04-11T22:12:40.296Z,1.37
2023-04-11T22:15:12.663Z,1.60
2023-04-11T22:17:43.573Z,1.10
2023-04-11T22:20:12.946Z,1.00
2023-04-11T22:22:42.313Z,1.77
2023-04-11T22:25:11.386Z,1.70
2023-04-11T22:27:39.339Z,1.63
2023-04-11T22:30:08.791Z,1.33
2023-04-11T22:32:37.067Z,1.40
2023-04-11T22:35:06.077Z,1.57
2023-04-11T22:37:34.004Z,1.53
2023-04-11T22:40:06.075Z,1.20
2023-04-11T22:42:33.948Z,1.13
2023-04-11T22:45:01.769Z,1.80
2023-04-11T22:47:29.728Z,1.30
2023-04-11T22:49:57.866Z,1.60
2023-04-11T22:52:25.898Z,1.30
2023-04-11T22:54:53.803Z,1.40
2023-04-11T22:57:23.123Z,1.67
2023-04-11T22:59:51.169Z,1.30
2023-04-11T23:02:19.155Z,1.40
2023-04-11T23:04:47.136Z,1.23
2023-04-11T23:07:16.870Z,1.07
2023-04-11T23:09:44.932Z,1.80
2023-04-11T23:12:12.896Z,1.70
2023-04-11T23:14:42.144Z,1.47
2023-04-11T23:17:10.054Z,1.17
2023-04-11T23:19:37.956Z,1.70
2023-04-11T23:22:06.454Z,1.10
2023-04-11T23:24:34.427Z,1.20
2023-04-11T23:27:02.551Z,1.30
2023-04-11T23:29:30.737Z,1.80
2023-04-11T23:32:00.017Z,1.20
2023-04-11T23:34:27.922Z,1.03
2023-04-11T23:36:57.431Z,1.93
2023-04-11T23:39:26.418Z,1.60
2023-04-11T23:41:54.328Z,1.13
2023-04-11T23:44:22.592Z,1.40
2023-04-11T23:46:50.569Z,1.30
2023-04-11T23:49:19.934Z,1.17
2023-04-11T23:51:48.244Z,1.10
2023-04-11T23:54:16.187Z,1.27
2023-04-11T23:56:44.594Z,1.30
2023-04-11T23:59:12.436Z,1.00
